Time;durP1;ratioP1;P1;durP2;ratioP2;P2;SDS_P1;SDS_P2;PMS_P1;PMS_P2;Temp;Humidity;BMP_temperature;BMP_pressure;BME280_temperature;BME280_humidity;BME280_pressure;Samples;Min_cycle;Max_cycle;Signal;HPM_P1;HPM_P2
2022/03/22 03:16:27;;;;;;;34.57;17.00;;;8.50;99.90;;;;;;2674981;28;22281;-66
2022/03/22 03:18:53;;;;;;;30.60;17.60;;;8.50;99.90;;;;;;5049163;28;20535;-62
2022/03/22 03:21:18;;;;;;;32.50;17.77;;;8.50;99.90;;;;;;5051181;28;20216;-62
2022/03/22 03:23:44;;;;;;;36.53;18.40;;;8.50;99.90;;;;;;5051367;28;20182;-61
2022/03/22 03:26:10;;;;;;;40.20;17.43;;;8.50;99.90;;;;;;5051299;28;20180;-62
2022/03/22 03:28:36;;;;;;;30.40;16.57;;;8.50;99.90;;;;;;5031374;28;20173;-61
2022/03/22 03:31:01;;;;;;;35.50;18.37;;;8.40;99.90;;;;;;5031451;28;20265;-61
2022/03/22 03:33:28;;;;;;;32.73;17.30;;;8.30;99.90;;;;;;5047987;28;20537;-62
2022/03/22 03:35:54;;;;;;;36.77;18.70;;;8.20;99.90;;;;;;5051082;28;20169;-62
2022/03/22 03:38:19;;;;;;;34.47;16.93;;;8.20;99.90;;;;;;5050594;28;20176;-62
2022/03/22 03:43:29;;;;;;;34.97;18.27;;;8.10;99.90;;;;;;5050909;28;20196;-60
2022/03/22 03:48:39;;;;;;;38.77;19.07;;;8.00;99.90;;;;;;5041567;28;20271;-61
2022/03/22 03:51:05;;;;;;;35.93;18.60;;;8.00;99.90;;;;;;5032583;28;20211;-61
2022/03/22 03:53:30;;;;;;;37.50;18.13;;;8.00;99.90;;;;;;5049621;28;20580;-61
2022/03/22 03:55:56;;;;;;;40.57;18.63;;;8.00;99.90;;;;;;5050458;28;20240;-61
2022/03/22 03:58:22;;;;;;;37.77;19.00;;;8.00;99.90;;;;;;5036009;28;20174;-61
2022/03/22 04:00:47;;;;;;;38.43;18.83;;;7.90;99.90;;;;;;5030583;28;20192;-60
2022/03/22 04:03:14;;;;;;;36.37;18.97;;;7.80;99.90;;;;;;5036664;28;20181;-60
2022/03/22 04:05:39;;;;;;;45.00;19.60;;;7.80;99.90;;;;;;5050929;28;20625;-60
2022/03/22 04:08:05;;;;;;;38.00;19.77;;;7.70;99.90;;;;;;5050425;28;20674;-60
2022/03/22 04:10:34;;;;;;;35.33;19.47;;;7.70;99.90;;;;;;5050566;28;20205;-60
2022/03/22 04:13:00;;;;;;;38.23;19.30;;;7.70;99.90;;;;;;5050362;28;20173;-59
2022/03/22 04:15:26;;;;;;;40.13;20.80;;;7.70;99.90;;;;;;5050629;28;20173;-59
2022/03/22 04:17:52;;;;;;;34.57;19.23;;;7.70;99.90;;;;;;5053991;28;20221;-61
2022/03/22 04:20:21;;;;;;;37.60;19.73;;;7.70;99.90;;;;;;5052023;28;20619;-61
2022/03/22 04:22:47;;;;;;;36.17;18.80;;;7.60;99.90;;;;;;5065582;28;20205;-60
2022/03/22 04:25:13;;;;;;;37.27;19.57;;;7.60;99.90;;;;;;5062077;28;20230;-60
2022/03/22 04:33:07;;;;;;;41.50;19.50;;;7.60;99.90;;;;;;5070596;28;20172;-60
2022/03/22 04:35:33;;;;;;;34.20;20.13;;;7.50;99.90;;;;;;5060452;28;20174;-60
2022/03/22 04:37:59;;;;;;;49.07;20.17;;;7.50;99.90;;;;;;5049244;28;20259;-60
2022/03/22 04:40:25;;;;;;;42.70;19.70;;;7.50;99.90;;;;;;5070336;28;20183;-60
2022/03/22 04:42:51;;;;;;;40.67;20.97;;;7.50;99.90;;;;;;5070012;28;20220;-60
2022/03/22 04:45:18;;;;;;;43.53;21.60;;;7.60;99.90;;;;;;5070368;28;20168;-60
2022/03/22 04:47:45;;;;;;;46.23;22.00;;;7.50;99.90;;;;;;5070371;28;20295;-60
2022/03/22 04:50:12;;;;;;;40.63;19.63;;;7.50;99.90;;;;;;5052408;28;20541;-60
2022/03/22 04:58:08;;;;;;;44.10;20.93;;;7.50;99.90;;;;;;5070472;28;20191;-59
2022/03/22 05:00:34;;;;;;;43.27;21.40;;;7.40;99.90;;;;;;5070181;28;20165;-59
2022/03/22 05:03:01;;;;;;;41.83;20.63;;;7.40;99.90;;;;;;5070185;28;20261;-59
2022/03/22 05:08:11;;;;;;;38.90;20.40;;;7.40;99.90;;;;;;5074279;28;20657;-60
2022/03/22 05:10:37;;;;;;;42.03;20.67;;;7.30;99.90;;;;;;5073801;28;20202;-60
2022/03/22 05:13:04;;;;;;;39.87;20.30;;;7.30;99.90;;;;;;5073600;28;20204;-60
2022/03/22 05:15:31;;;;;;;43.07;22.10;;;7.20;99.90;;;;;;5073731;28;20165;-60
2022/03/22 05:17:57;;;;;;;40.97;21.27;;;7.20;99.90;;;;;;5055740;28;20261;-60
2022/03/22 05:20:23;;;;;;;49.07;21.17;;;7.20;99.90;;;;;;5073619;28;20207;-60
2022/03/22 05:22:49;;;;;;;37.97;19.83;;;7.20;99.90;;;;;;5055774;28;20241;-60
2022/03/22 05:25:15;;;;;;;42.40;21.90;;;7.20;99.90;;;;;;5071443;28;20255;-61
2022/03/22 05:27:41;;;;;;;42.00;20.97;;;7.20;99.90;;;;;;5073291;28;20230;-60
2022/03/22 05:30:08;;;;;;;45.77;21.10;;;7.20;99.90;;;;;;5073610;28;20654;-60
2022/03/22 05:32:34;;;;;;;42.00;21.10;;;7.10;99.90;;;;;;5069297;28;20310;-61
2022/03/22 05:35:00;;;;;;;46.30;21.63;;;7.10;99.90;;;;;;5072714;28;20200;-60
2022/03/22 05:37:26;;;;;;;43.67;20.90;;;7.10;99.90;;;;;;5053658;28;20168;-60
2022/03/22 05:39:51;;;;;;;39.77;20.37;;;7.10;99.90;;;;;;5072849;28;20678;-60
2022/03/22 05:42:17;;;;;;;43.00;22.07;;;7.10;99.90;;;;;;5064299;28;20238;-60
2022/03/22 05:44:44;;;;;;;48.43;22.90;;;7.10;99.90;;;;;;5060620;28;20173;-60
2022/03/22 05:47:10;;;;;;;53.73;23.53;;;7.00;99.90;;;;;;5073027;28;20208;-60
2022/03/22 05:49:37;;;;;;;49.37;22.90;;;7.00;99.90;;;;;;5066665;28;20174;-59
2022/03/22 05:52:06;;;;;;;45.03;22.50;;;7.00;99.90;;;;;;5053102;28;20173;-60
2022/03/22 05:54:34;;;;;;;45.10;23.27;;;6.90;99.90;;;;;;5053063;28;20172;-60
2022/03/22 05:57:00;;;;;;;44.20;22.87;;;6.90;99.90;;;;;;5053177;28;20251;-60
2022/03/22 05:59:26;;;;;;;54.77;24.47;;;6.90;99.90;;;;;;5067338;28;20177;-60
2022/03/22 06:01:52;;;;;;;49.73;23.23;;;6.90;99.90;;;;;;5065252;28;20643;-60
2022/03/22 06:04:19;;;;;;;45.87;23.70;;;7.00;99.90;;;;;;5052977;28;20181;-60
2022/03/22 06:06:47;;;;;;;48.67;23.10;;;7.00;99.90;;;;;;5052908;28;20181;-60
2022/03/22 06:09:13;;;;;;;48.90;25.73;;;7.00;99.90;;;;;;5053073;28;20188;-60
2022/03/22 06:11:39;;;;;;;56.23;27.33;;;7.10;99.90;;;;;;5052867;28;20170;-60
2022/03/22 06:14:05;;;;;;;56.13;26.67;;;7.10;99.90;;;;;;5034746;28;20173;-60
2022/03/22 06:16:32;;;;;;;51.30;24.70;;;7.10;99.90;;;;;;5051586;28;20173;-60
2022/03/22 06:18:58;;;;;;;52.27;24.33;;;7.10;99.90;;;;;;5052657;28;20177;-60
2022/03/22 06:21:25;;;;;;;55.47;24.97;;;7.10;99.90;;;;;;5072453;28;20257;-59
2022/03/22 06:23:52;;;;;;;53.57;25.20;;;7.10;99.90;;;;;;5072639;28;20173;-59
2022/03/22 06:26:18;;;;;;;52.70;24.17;;;7.10;99.90;;;;;;5072540;28;20184;-59
2022/03/22 06:28:43;;;;;;;49.10;24.50;;;7.10;99.90;;;;;;5072304;28;20186;-59
2022/03/22 06:31:09;;;;;;;48.33;23.90;;;7.00;99.90;;;;;;5072668;28;20251;-59
2022/03/22 06:33:35;;;;;;;61.67;24.33;;;7.00;99.90;;;;;;5072387;28;20634;-59
2022/03/22 06:36:01;;;;;;;52.37;24.63;;;7.00;99.90;;;;;;5072407;28;20169;-60
2022/03/22 06:38:32;;;;;;;54.13;25.77;;;7.00;99.90;;;;;;5072004;28;20181;-59
2022/03/22 06:40:59;;;;;;;60.60;24.77;;;7.10;99.90;;;;;;5071500;28;20283;-59
2022/03/22 06:43:25;;;;;;;54.27;23.87;;;7.10;99.90;;;;;;5071876;28;20183;-59
2022/03/22 06:45:50;;;;;;;50.00;24.33;;;7.10;99.90;;;;;;5072115;28;20164;-59
2022/03/22 06:48:16;;;;;;;50.50;24.43;;;7.10;99.90;;;;;;5071493;28;20670;-60
2022/03/22 06:50:43;;;;;;;49.30;24.37;;;7.20;99.90;;;;;;5071253;28;20165;-60
2022/03/22 06:53:10;;;;;;;52.27;23.77;;;7.30;99.90;;;;;;5060181;28;20191;-60
2022/03/22 06:55:36;;;;;;;59.43;25.30;;;7.30;99.90;;;;;;5071893;28;20259;-60
2022/03/22 06:58:04;;;;;;;56.33;25.53;;;7.30;99.90;;;;;;5060265;28;20275;-60
2022/03/22 07:00:31;;;;;;;57.27;25.23;;;7.40;99.90;;;;;;5051990;28;20185;-60
2022/03/22 07:02:58;;;;;;;58.53;26.37;;;7.50;99.90;;;;;;5051901;28;20221;-61
2022/03/22 07:05:24;;;;;;;54.10;25.40;;;7.60;99.90;;;;;;5051867;28;20563;-61
2022/03/22 07:07:50;;;;;;;54.00;26.23;;;7.70;99.90;;;;;;5051729;28;20177;-61
2022/03/22 07:10:18;;;;;;;53.73;26.37;;;7.80;99.90;;;;;;5063405;28;20643;-61
2022/03/22 07:12:51;;;;;;;55.10;26.40;;;7.90;99.90;;;;;;5071640;28;20239;-60
2022/03/22 07:15:23;;;;;;;59.77;28.03;;;7.90;99.90;;;;;;5071355;28;20235;-60
2022/03/22 07:17:52;;;;;;;58.33;28.63;;;8.00;99.90;;;;;;5071112;28;20299;-60
2022/03/22 07:20:18;;;;;;;59.70;27.30;;;8.00;99.90;;;;;;5071130;28;20249;-59
2022/03/22 07:22:44;;;;;;;65.83;28.53;;;8.00;99.90;;;;;;5071221;28;20682;-59
2022/03/22 07:25:10;;;;;;;57.23;28.60;;;8.10;99.90;;;;;;5071418;28;20230;-59
2022/03/22 07:27:36;;;;;;;55.93;28.13;;;8.20;99.90;;;;;;5071168;28;20188;-59
2022/03/22 07:30:02;;;;;;;58.30;29.43;;;8.30;99.90;;;;;;5071331;28;20802;-60
2022/03/22 07:32:28;;;;;;;62.50;28.90;;;8.40;99.90;;;;;;5071220;28;20251;-60
2022/03/22 07:34:54;;;;;;;61.73;29.00;;;8.50;99.90;;;;;;5071066;28;20259;-58
2022/03/22 07:37:20;;;;;;;58.03;28.67;;;8.70;99.90;;;;;;5071075;28;20580;-59
2022/03/22 07:39:45;;;;;;;56.23;28.70;;;8.70;99.90;;;;;;5070818;28;20670;-59
2022/03/22 07:42:11;;;;;;;64.70;30.27;;;8.80;99.90;;;;;;5070871;28;20284;-63
2022/03/22 07:44:39;;;;;;;54.70;28.03;;;9.00;99.90;;;;;;5070874;28;20168;-70
2022/03/22 07:47:06;;;;;;;70.47;30.27;;;9.10;99.90;;;;;;5070090;28;20184;-69
2022/03/22 07:55:00;;;;;;;57.27;28.93;;;9.50;99.90;;;;;;5068328;28;20741;-67
2022/03/22 07:57:26;;;;;;;68.00;29.87;;;9.70;99.90;;;;;;5080632;28;20176;-67
2022/03/22 07:59:52;;;;;;;61.60;30.83;;;9.70;99.90;;;;;;5082717;28;20169;-68
2022/03/22 08:02:18;;;;;;;64.60;32.00;;;9.80;99.90;;;;;;5070305;28;20249;-68
2022/03/22 08:04:43;;;;;;;60.37;30.83;;;10.00;99.90;;;;;;5070598;28;20218;-66
2022/03/22 08:07:09;;;;;;;66.70;30.40;;;10.10;99.90;;;;;;5070691;28;20180;-66
2022/03/22 08:09:35;;;;;;;63.57;31.50;;;10.20;99.90;;;;;;5070243;28;20643;-66
2022/03/22 08:12:01;;;;;;;68.63;31.73;;;10.30;99.90;;;;;;5070590;28;20283;-66
2022/03/22 08:14:27;;;;;;;60.43;31.53;;;10.40;99.90;;;;;;5070760;28;20183;-67
2022/03/22 08:16:53;;;;;;;67.13;32.17;;;10.60;99.90;;;;;;5069144;28;20222;-67
2022/03/22 08:19:19;;;;;;;66.50;33.03;;;10.70;99.90;;;;;;5068629;28;20350;-66
2022/03/22 08:21:46;;;;;;;65.60;33.07;;;10.90;99.90;;;;;;5070180;28;20729;-68
2022/03/22 08:24:13;;;;;;;66.27;33.07;;;11.10;99.90;;;;;;5070385;28;20164;-64
2022/03/22 08:26:39;;;;;;;63.53;32.70;;;11.20;99.90;;;;;;5068889;28;20180;-73
2022/03/22 08:29:06;;;;;;;74.00;33.47;;;11.40;99.90;;;;;;5069063;28;20176;-69
2022/03/22 08:31:32;;;;;;;60.53;32.53;;;11.70;99.90;;;;;;5055766;28;20181;-66
2022/03/22 08:33:57;;;;;;;66.13;34.03;;;11.90;99.90;;;;;;5051235;28;20173;-66
2022/03/22 08:36:23;;;;;;;70.53;32.47;;;12.10;99.90;;;;;;5070271;28;20270;-66
2022/03/22 08:38:49;;;;;;;65.88;32.35;;;12.30;99.90;;;;;;5070325;28;20226;-65
2022/03/22 08:41:16;;;;;;;59.13;33.17;;;12.70;99.90;;;;;;5074047;28;20225;-65
2022/03/22 08:43:42;;;;;;;65.07;34.30;;;13.00;99.90;;;;;;5074527;28;20173;-68
2022/03/22 08:46:08;;;;;;;66.72;32.50;;;13.50;99.90;;;;;;5072854;28;20176;-67
2022/03/22 08:48:37;;;;;;;58.40;32.83;;;14.60;99.90;;;;;;5036330;28;20176;-67
2022/03/22 08:51:05;;;;;;;53.25;31.30;;;15.80;99.90;;;;;;5068790;28;20180;-72
2022/03/22 08:53:31;;;;;;;54.90;31.15;;;16.90;99.90;;;;;;5063315;28;20173;-74
2022/03/22 08:55:56;;;;;;;51.05;30.98;;;17.20;99.90;;;;;;5071237;28;20545;-71
2022/03/22 08:58:22;;;;;;;57.40;31.38;;;16.30;99.90;;;;;;5072111;28;20206;-72
2022/03/22 09:00:48;;;;;;;53.00;30.10;;;16.50;99.90;;;;;;5073903;28;20176;-74
2022/03/22 09:03:15;;;;;;;56.17;28.92;;;16.00;99.90;;;;;;5073395;28;20253;-75
2022/03/22 09:08:25;;;;;;;46.50;29.42;;;16.50;99.90;;;;;;5074455;28;20176;-71
2022/03/22 09:10:51;;;;;;;47.63;29.38;;;;;;;;;;5073907;28;20168;-64
2022/03/22 09:13:18;;;;;;;51.03;28.88;;;16.60;99.90;;;;;;5073560;28;20196;-73
2022/03/22 09:15:46;;;;;;;47.35;28.65;;;16.60;99.90;;;;;;5069457;28;20302;-70
2022/03/22 09:18:13;;;;;;;47.17;28.10;;;17.10;99.90;;;;;;5073705;28;20333;-73
2022/03/22 09:20:39;;;;;;;51.25;27.00;;;19.40;99.90;;;;;;5073796;28;20176;-73
2022/03/22 09:23:05;;;;;;;49.20;28.50;;;19.40;99.90;;;;;;5073652;28;20216;-72
2022/03/22 09:25:31;;;;;;;47.67;28.52;;;19.50;99.90;;;;;;5073330;28;20238;-71
2022/03/22 09:28:00;;;;;;;49.22;27.88;;;20.30;99.90;;;;;;5073671;28;20635;-71
2022/03/22 09:30:26;;;;;;;47.83;28.58;;;21.00;99.90;;;;;;5062591;28;20227;-66
2022/03/22 09:32:52;;;;;;;42.83;27.90;;;21.30;99.90;;;;;;5071901;28;20172;-65
2022/03/22 09:35:19;;;;;;;40.47;27.65;;;20.40;99.90;;;;;;5073139;28;20226;-65
2022/03/22 09:37:46;;;;;;;44.20;28.75;;;19.20;99.90;;;;;;5073111;28;20160;-66
2022/03/22 09:40:14;;;;;;;47.22;28.25;;;19.30;99.90;;;;;;5072749;28;20656;-65
2022/03/22 09:42:54;;;;;;;45.10;27.33;;;19.10;99.90;;;;;;5072426;28;20211;-66
2022/03/22 09:45:25;;;;;;;42.15;26.88;;;21.00;99.90;;;;;;5073185;28;20211;-66
2022/03/22 09:47:52;;;;;;;44.00;28.23;;;20.30;99.90;;;;;;5073185;28;20199;-66
2022/03/22 09:50:20;;;;;;;47.00;27.38;;;21.90;99.90;;;;;;5072969;28;20184;-66
2022/03/22 09:52:46;;;;;;;47.30;27.45;;;20.70;99.90;;;;;;5054948;28;20657;-66
2022/03/22 09:55:16;;;;;;;42.28;26.25;;;20.40;99.90;;;;;;5059840;28;20215;-71
2022/03/22 11:09:00;;;;;;;24.50;16.20;;;22.40;99.90;;;;;;2329126;28;23027;-68
2022/03/22 11:11:30;;;;;;;26.15;18.33;;;20.90;99.90;;;;;;5049392;28;20220;-63
2022/03/22 11:13:56;;;;;;;29.08;18.23;;;21.00;99.90;;;;;;5051624;28;20165;-63
2022/03/22 11:16:24;;;;;;;25.27;15.40;;;20.90;99.90;;;;;;5051435;28;20508;-62
2022/03/22 11:18:50;;;;;;;24.90;13.57;;;22.00;99.90;;;;;;5065229;28;20260;-62
2022/03/22 11:21:18;;;;;;;22.20;14.43;;;20.70;99.90;;;;;;5060027;28;20253;-62
2022/03/22 11:23:44;;;;;;;24.90;14.95;;;20.50;99.90;;;;;;5053391;28;20273;-62
2022/03/22 11:26:17;;;;;;;23.77;13.82;;;21.80;99.90;;;;;;5065702;28;20176;-63
2022/03/22 11:28:45;;;;;;;20.05;14.18;;;22.30;99.90;;;;;;5051153;28;20173;-62
2022/03/22 11:31:13;;;;;;;22.73;14.02;;;21.70;99.90;;;;;;5051093;28;20166;-63
2022/03/22 11:36:27;;;;;;;19.95;13.73;;;21.00;99.90;;;;;;5052498;28;20188;-63
2022/03/22 11:38:58;;;;;;;21.23;14.48;;;21.60;99.90;;;;;;5051186;28;20180;-63
2022/03/22 11:44:37;;;;;;;29.00;12.90;;;21.60;99.90;;;;;;5065127;28;20287;-63
2022/03/22 11:47:04;;;;;;;20.13;12.40;;;23.20;99.90;;;;;;5071147;28;20254;-63
2022/03/22 11:49:30;;;;;;;21.00;12.55;;;22.70;99.90;;;;;;5070873;28;20173;-63
2022/03/22 11:52:11;;;;;;;18.10;12.02;;;22.10;99.90;;;;;;5070423;28;20177;-63
2022/03/22 11:54:39;;;;;;;19.33;11.63;;;21.30;99.90;;;;;;5058932;28;20167;-63
2022/03/22 11:57:07;;;;;;;18.88;12.07;;;22.50;99.90;;;;;;5064187;28;20182;-62
2022/03/22 11:59:41;;;;;;;21.17;12.88;;;23.10;99.90;;;;;;5058226;28;20187;-62
2022/03/22 12:02:15;;;;;;;24.08;12.60;;;23.00;99.90;;;;;;5068848;28;20226;-63
2022/03/22 12:04:49;;;;;;;23.13;13.40;;;22.50;99.90;;;;;;5052942;28;20165;-62
2022/03/22 12:07:22;;;;;;;20.95;12.40;;;22.20;99.90;;;;;;5048957;28;20177;-62
2022/03/22 12:09:48;;;;;;;17.83;11.40;;;22.70;99.90;;;;;;5049889;28;20290;-62
2022/03/22 12:12:15;;;;;;;14.68;11.15;;;23.40;99.90;;;;;;5059870;28;20180;-62
2022/03/22 12:14:47;;;;;;;15.30;11.35;;;21.70;99.90;;;;;;5057706;28;20172;-62
2022/03/22 12:17:14;;;;;;;20.13;11.77;;;22.20;99.90;;;;;;5067550;28;20176;-62
2022/03/22 12:19:40;;;;;;;18.05;11.82;;;22.90;99.90;;;;;;5066947;28;20164;-62
2022/03/22 12:22:06;;;;;;;14.32;11.10;;;23.00;99.90;;;;;;5069076;28;20310;-62
2022/03/22 12:24:34;;;;;;;14.90;10.73;;;21.50;99.90;;;;;;5070668;28;20172;-62
2022/03/22 12:27:05;;;;;;;15.35;10.25;;;20.90;99.90;;;;;;5070584;28;20665;-62
2022/03/22 12:29:36;;;;;;;17.23;10.32;;;21.90;99.90;;;;;;5070637;28;20341;-62
2022/03/22 12:32:06;;;;;;;15.57;9.18;;;21.70;99.90;;;;;;5051099;28;20199;-62
2022/03/22 12:34:36;;;;;;;14.25;8.52;;;22.00;99.90;;;;;;5070448;28;20168;-63
2022/03/22 12:37:02;;;;;;;12.30;8.05;;;22.50;99.90;;;;;;5070582;28;20165;-62
2022/03/22 12:39:28;;;;;;;14.02;9.32;;;22.10;99.90;;;;;;5070418;28;20172;-62
2022/03/22 12:41:55;;;;;;;12.82;8.88;;;21.50;99.90;;;;;;5067509;28;20282;-62
2022/03/22 12:44:22;;;;;;;13.85;9.07;;;21.50;99.90;;;;;;5067508;28;20168;-62
2022/03/22 12:46:48;;;;;;;14.63;9.30;;;22.20;99.90;;;;;;5069224;28;20183;-62
2022/03/22 12:49:14;;;;;;;12.93;8.38;;;21.80;99.90;;;;;;5070228;28;20160;-62
2022/03/22 12:51:41;;;;;;;12.80;7.88;;;21.80;99.90;;;;;;5069349;28;20645;-62
2022/03/22 12:54:09;;;;;;;12.38;7.82;;;21.60;99.90;;;;;;5069523;28;20169;-62
2022/03/22 12:56:35;;;;;;;10.43;6.68;;;20.70;99.90;;;;;;5070338;28;20243;-62
2022/03/22 12:59:01;;;;;;;11.95;7.18;;;21.30;99.90;;;;;;5070187;28;20698;-62
2022/03/22 13:01:38;;;;;;;13.63;7.90;;;21.00;99.90;;;;;;5069355;28;20196;-62
2022/03/22 13:04:06;;;;;;;12.15;8.05;;;22.30;99.90;;;;;;5068920;28;20182;-62
2022/03/22 13:06:32;;;;;;;11.30;6.88;;;23.40;99.90;;;;;;5070172;28;20177;-63
2022/03/22 13:11:42;;;;;;;14.70;7.47;;;21.00;99.90;;;;;;5058658;28;20583;-62
2022/03/22 13:17:17;;;;;;;12.70;6.95;;;20.90;99.90;;;;;;4987918;28;20524;-62
2022/03/22 13:19:42;;;;;;;12.95;6.85;;;21.50;99.90;;;;;;4987412;28;20191;-62
2022/03/22 13:22:21;;;;;;;10.00;6.80;;;21.20;99.90;;;;;;5026544;28;20289;-62
2022/03/22 13:24:48;;;;;;;9.82;6.40;;;20.90;99.90;;;;;;5069654;28;20183;-62
2022/03/22 13:27:17;;;;;;;19.48;6.80;;;21.50;99.90;;;;;;5073292;28;20179;-62
2022/03/22 13:29:44;;;;;;;11.57;6.88;;;22.20;99.90;;;;;;5073682;28;20164;-62
2022/03/22 13:32:12;;;;;;;10.85;6.90;;;21.80;99.90;;;;;;5073551;28;20175;-62
2022/03/22 13:34:44;;;;;;;16.42;6.88;;;22.70;99.90;;;;;;5073383;28;20168;-62
2022/03/22 13:37:17;;;;;;;11.82;6.40;;;23.90;99.90;;;;;;5067991;28;20526;-63
2022/03/22 13:39:50;;;;;;;16.08;7.20;;;24.50;99.90;;;;;;5053583;28;20288;-62
2022/03/22 13:42:20;;;;;;;9.13;6.15;;;23.00;99.90;;;;;;5069397;28;20299;-62
2022/03/22 13:44:48;;;;;;;11.13;5.95;;;22.10;99.90;;;;;;5054212;28;20184;-62
2022/03/22 13:47:33;;;;;;;9.77;5.70;;;21.80;99.90;;;;;;5073151;28;20180;-62
2022/03/22 13:50:18;;;;;;;9.60;6.18;;;21.40;99.90;;;;;;5052134;28;20268;-62
2022/03/22 13:52:46;;;;;;;11.95;5.93;;;21.70;99.90;;;;;;5073218;28;20165;-63
2022/03/22 13:55:16;;;;;;;16.25;6.22;;;22.10;99.90;;;;;;5073017;28;20646;-63
2022/03/22 13:57:42;;;;;;;12.70;5.63;;;22.70;99.90;;;;;;5054357;28;20180;-63
2022/03/22 14:00:08;;;;;;;15.35;6.57;;;24.10;99.90;;;;;;5058739;28;20688;-63
2022/03/22 14:02:36;;;;;;;12.23;6.25;;;22.70;99.90;;;;;;5038584;28;20333;-63
2022/03/22 14:05:02;;;;;;;12.00;6.38;;;21.90;99.90;;;;;;5072965;28;20247;-63
2022/03/22 14:07:28;;;;;;;13.75;6.18;;;23.40;99.90;;;;;;5068161;28;20260;-63
2022/03/22 14:09:55;;;;;;;13.85;6.90;;;22.90;99.90;;;;;;5052783;28;20225;-63
2022/03/22 14:12:20;;;;;;;11.82;6.22;;;21.90;99.90;;;;;;5046005;28;20212;-62
2022/03/22 14:14:46;;;;;;;10.50;5.68;;;21.80;99.90;;;;;;5072790;28;20199;-62
2022/03/22 14:17:12;;;;;;;10.07;5.88;;;21.70;99.90;;;;;;5071992;28;20229;-62
2022/03/22 14:19:38;;;;;;;14.02;6.55;;;22.20;99.90;;;;;;5073030;28;20278;-62
2022/03/22 14:22:03;;;;;;;11.68;6.00;;;22.70;99.90;;;;;;5054812;28;20697;-62
2022/03/22 14:24:31;;;;;;;10.43;5.85;;;22.80;99.90;;;;;;5072732;28;20176;-63
2022/03/22 14:26:57;;;;;;;9.43;5.43;;;22.80;99.90;;;;;;5059884;28;20177;-63
2022/03/22 14:29:23;;;;;;;12.27;5.35;;;22.20;99.90;;;;;;5072549;28;20536;-68
2022/03/22 14:31:48;;;;;;;9.50;4.85;;;21.90;99.90;;;;;;5071931;28;20180;-68
2022/03/22 14:35:46;;;;;;;8.38;4.63;;;21.00;99.90;;;;;;5066585;28;20177;-71
2022/03/22 14:37:00;;;;;;;12.63;4.90;;;20.50;99.90;;;;;;5054740;28;20180;-70
2022/03/22 14:39:27;;;;;;;8.48;4.65;;;20.80;99.90;;;;;;5063440;28;20181;-70
2022/03/22 14:41:55;;;;;;;16.30;4.93;;;22.50;99.90;;;;;;5072392;28;20200;-70
2022/03/22 14:44:21;;;;;;;7.95;4.75;;;22.30;99.90;;;;;;5072407;28;20662;-70
2022/03/22 14:46:51;;;;;;;9.20;4.60;;;22.90;99.90;;;;;;5067303;28;20203;-72
2022/03/22 14:49:18;;;;;;;13.30;5.00;;;23.00;99.90;;;;;;5072118;28;20477;-70
2022/03/22 14:54:34;;;;;;;8.88;4.50;;;22.00;99.90;;;;;;5066917;28;20229;-69
2022/03/22 14:59:46;;;;;;;9.55;4.63;;;22.20;99.90;;;;;;5071917;28;20534;-70
2022/03/22 15:02:14;;;;;;;13.55;5.68;;;22.10;99.90;;;;;;5071756;28;20235;-70
2022/03/22 15:04:42;;;;;;;8.07;4.55;;;22.70;99.90;;;;;;5069901;28;20169;-70
2022/03/22 15:07:10;;;;;;;7.03;4.22;;;22.50;99.90;;;;;;5071884;28;20203;-70
2022/03/22 15:09:38;;;;;;;9.95;5.78;;;22.90;99.90;;;;;;5053324;28;20220;-70
2022/03/22 15:12:06;;;;;;;8.40;4.80;;;22.00;99.90;;;;;;5051674;28;20177;-70
2022/03/22 15:14:35;;;;;;;9.70;4.57;;;20.90;99.90;;;;;;5051563;28;20168;-70
2022/03/22 15:17:00;;;;;;;11.57;4.43;;;21.40;99.90;;;;;;5057211;28;20219;-70
2022/03/22 15:19:26;;;;;;;9.43;4.75;;;22.00;99.90;;;;;;5071360;28;20172;-70
2022/03/22 15:21:53;;;;;;;8.73;4.60;;;21.90;99.90;;;;;;5071242;28;20196;-67
2022/03/22 15:24:19;;;;;;;9.57;4.00;;;22.10;99.90;;;;;;5071161;28;20271;-68
2022/03/22 15:26:44;;;;;;;7.97;4.50;;;22.50;99.90;;;;;;5071263;28;20264;-62
2022/03/22 15:29:11;;;;;;;9.60;4.60;;;22.00;99.90;;;;;;5071178;28;20526;-62
2022/03/22 15:31:38;;;;;;;8.95;4.68;;;22.10;99.90;;;;;;5065978;28;20259;-63
2022/03/22 15:34:04;;;;;;;13.90;4.82;;;21.90;99.90;;;;;;5053618;28;20173;-62
2022/03/22 15:36:30;;;;;;;12.55;4.60;;;22.10;99.90;;;;;;5062485;28;20652;-62
2022/03/22 15:38:56;;;;;;;9.35;4.13;;;21.70;99.90;;;;;;5071149;28;20252;-63
2022/03/22 15:41:22;;;;;;;15.02;5.65;;;21.10;99.90;;;;;;5070942;28;20591;-63
2022/03/22 15:43:50;;;;;;;10.45;6.35;;;21.20;99.90;;;;;;5071087;28;20176;-64
2022/03/22 15:46:16;;;;;;;7.60;4.68;;;21.10;99.90;;;;;;5070209;28;20210;-63
2022/03/22 15:48:42;;;;;;;7.43;5.00;;;20.40;99.90;;;;;;5070895;28;20643;-64
2022/03/22 15:51:10;;;;;;;10.43;5.03;;;21.10;99.90;;;;;;5067907;28;20272;-64
2022/03/22 15:53:36;;;;;;;9.45;5.03;;;21.20;99.90;;;;;;5051966;28;20173;-63
2022/03/22 15:56:03;;;;;;;10.18;5.05;;;20.40;99.90;;;;;;5070653;28;20179;-64
2022/03/22 15:58:28;;;;;;;7.72;4.90;;;20.40;99.90;;;;;;5070104;28;20176;-65
2022/03/22 16:00:54;;;;;;;12.50;5.57;;;21.00;99.90;;;;;;5070740;28;20641;-65
2022/03/22 16:03:24;;;;;;;11.20;5.45;;;21.40;99.90;;;;;;5061065;28;20213;-64
2022/03/22 16:05:50;;;;;;;8.80;5.13;;;21.70;99.90;;;;;;5050523;28;20166;-64
2022/03/22 16:08:15;;;;;;;14.15;5.60;;;21.30;99.90;;;;;;5050734;28;20178;-64
2022/03/22 16:10:41;;;;;;;12.70;5.18;;;20.60;99.90;;;;;;5050328;28;20224;-63
2022/03/22 16:13:07;;;;;;;11.13;5.35;;;20.20;99.90;;;;;;5062844;28;20421;-64
2022/03/22 16:15:32;;;;;;;11.40;5.80;;;21.00;99.90;;;;;;5070277;28;20176;-69
2022/03/22 16:18:00;;;;;;;9.30;5.22;;;21.30;99.90;;;;;;5070370;28;20175;-63
2022/03/22 16:20:28;;;;;;;11.73;4.40;;;20.20;99.90;;;;;;5051585;28;20276;-64
2022/03/22 16:22:54;;;;;;;9.48;4.97;;;20.10;99.90;;;;;;5050250;28;20204;-64
2022/03/22 16:25:21;;;;;;;7.55;4.40;;;20.50;99.90;;;;;;5050326;28;20297;-65
2022/03/22 16:27:49;;;;;;;8.25;5.20;;;20.20;99.90;;;;;;5050535;28;20169;-64
2022/03/22 16:30:21;;;;;;;7.90;5.07;;;20.30;99.90;;;;;;5056189;28;20184;-64
2022/03/22 16:39:20;;;;;;;8.35;4.45;;;20.60;99.90;;;;;;4989005;28;20585;-64
2022/03/22 16:41:22;;;;;;;11.90;5.28;;;19.90;99.90;;;;;;5033827;28;20184;-64
2022/03/22 16:43:47;;;;;;;9.73;5.00;;;20.60;99.90;;;;;;5050432;28;20181;-63
2022/03/22 16:46:15;;;;;;;9.38;4.80;;;20.90;99.90;;;;;;5050303;28;20165;-63
2022/03/22 16:48:41;;;;;;;10.25;5.15;;;20.60;99.90;;;;;;5067833;28;20176;-64
2022/03/22 16:51:07;;;;;;;9.40;5.05;;;20.50;99.90;;;;;;5069558;28;20166;-63
2022/03/22 16:53:33;;;;;;;9.88;4.85;;;20.80;99.90;;;;;;5070164;28;20214;-64
2022/03/22 16:56:02;;;;;;;10.95;5.38;;;20.90;99.90;;;;;;5070146;28;20203;-64
2022/03/22 16:58:28;;;;;;;8.77;5.03;;;21.20;99.90;;;;;;5062571;28;20173;-64
2022/03/22 17:00:54;;;;;;;12.98;5.68;;;21.40;99.90;;;;;;5053709;28;20247;-64
2022/03/22 17:03:20;;;;;;;10.55;5.55;;;21.30;99.90;;;;;;5062144;28;20255;-64
2022/03/22 17:05:47;;;;;;;8.60;5.25;;;20.50;99.90;;;;;;5060422;28;20201;-63
2022/03/22 17:08:13;;;;;;;11.95;5.13;;;20.20;99.90;;;;;;5073833;28;20169;-64
2022/03/22 17:10:39;;;;;;;7.88;4.95;;;20.40;99.90;;;;;;5073604;28;20469;-64
2022/03/22 17:13:05;;;;;;;7.63;5.10;;;19.80;99.90;;;;;;5073153;28;20258;-64
2022/03/22 17:15:34;;;;;;;8.88;5.22;;;19.80;99.90;;;;;;5073830;28;20656;-64
2022/03/22 17:18:01;;;;;;;10.18;5.20;;;19.40;99.90;;;;;;5055867;28;20164;-63
2022/03/22 17:20:27;;;;;;;9.90;4.90;;;19.20;99.90;;;;;;5063853;28;20256;-63
2022/03/22 17:22:54;;;;;;;11.73;4.70;;;19.30;99.90;;;;;;5053511;28;20360;-63
2022/03/22 17:25:21;;;;;;;9.70;5.07;;;19.10;99.90;;;;;;5053690;28;20197;-64
2022/03/22 17:27:48;;;;;;;10.15;5.00;;;18.80;99.90;;;;;;5053577;28;20185;-64
2022/03/22 17:30:15;;;;;;;11.63;5.35;;;18.90;99.90;;;;;;5057117;28;20177;-64
2022/03/22 17:32:43;;;;;;;10.98;5.53;;;19.00;99.90;;;;;;5072113;28;20623;-63
2022/03/22 17:35:11;;;;;;;15.82;5.43;;;18.40;99.90;;;;;;5071434;28;20172;-63
2022/03/22 17:37:37;;;;;;;8.93;5.00;;;18.50;99.90;;;;;;5059522;28;20173;-63
2022/03/22 17:40:04;;;;;;;11.52;5.55;;;18.50;99.90;;;;;;5064063;28;20164;-64
2022/03/22 17:42:30;;;;;;;15.65;5.82;;;18.40;99.90;;;;;;5053226;28;20205;-63
2022/03/22 17:44:56;;;;;;;12.77;5.32;;;18.00;99.90;;;;;;5053452;28;20530;-63
2022/03/22 17:47:22;;;;;;;12.18;5.90;;;17.50;99.90;;;;;;5070460;28;20180;-63
2022/03/22 17:49:49;;;;;;;9.48;5.55;;;17.40;99.90;;;;;;5073103;28;20175;-63
2022/03/22 17:52:15;;;;;;;14.13;5.82;;;17.40;99.90;;;;;;5072870;28;20180;-63